createdAt,value
2023-04-02T00:01:07.430Z,73.75
2023-04-02T00:03:59.721Z,73.62
2023-04-02T00:06:40.447Z,73.67
2023-04-02T00:09:27.799Z,73.32
2023-04-02T00:11:57.291Z,73.20
2023-04-02T00:14:27.309Z,72.91
2023-04-02T00:16:57.165Z,72.66
2023-04-02T00:19:27.411Z,72.63
2023-04-02T00:21:58.336Z,72.58
2023-04-02T00:24:27.442Z,72.41
2023-04-02T00:26:56.880Z,72.46
2023-04-02T00:29:26.017Z,72.70
2023-04-02T00:31:55.587Z,72.72
2023-04-02T00:34:25.457Z,72.97
2023-04-02T00:36:55.062Z,73.03
2023-04-02T00:39:25.939Z,72.97
2023-04-02T00:42:05.182Z,73.16
2023-04-02T00:44:34.414Z,73.03
2023-04-02T00:47:05.117Z,73.41
2023-04-02T00:49:36.494Z,73.36
2023-04-02T00:52:06.622Z,73.65
2023-04-02T00:54:38.881Z,73.69
2023-04-02T00:57:12.594Z,73.90
2023-04-02T00:59:44.580Z,73.10
2023-04-02T01:02:31.945Z,73.06
2023-04-02T01:05:02.328Z,72.69
2023-04-02T01:07:44.234Z,72.58
2023-04-02T01:10:17.669Z,72.57
2023-04-02T01:12:50.036Z,71.97
2023-04-02T01:15:20.100Z,72.05
2023-04-02T01:17:58.676Z,71.86
2023-04-02T01:20:45.436Z,71.97
2023-04-02T01:23:15.163Z,71.24
2023-04-02T01:25:47.266Z,71.84
2023-04-02T01:28:19.866Z,71.97
2023-04-02T01:30:50.945Z,72.18
2023-04-02T01:33:20.918Z,72.48
2023-04-02T01:35:50.679Z,73.04
2023-04-02T01:38:21.369Z,72.73
2023-04-02T01:40:51.606Z,72.87
2023-04-02T01:43:21.853Z,72.71
2023-04-02T01:45:52.357Z,72.39
2023-04-02T01:48:24.878Z,72.27
2023-04-02T01:50:55.021Z,72.00
2023-04-02T01:53:24.684Z,72.02
2023-04-02T01:55:54.472Z,71.90
2023-04-02T01:58:25.785Z,71.77
2023-04-02T02:00:57.551Z,71.65
2023-04-02T02:03:27.010Z,71.96
2023-04-02T02:05:56.101Z,71.50
2023-04-02T02:08:32.153Z,71.43
2023-04-02T02:11:01.535Z,71.51
2023-04-02T02:13:32.346Z,71.74
2023-04-02T02:16:03.086Z,71.62
2023-04-02T02:18:32.567Z,71.71
2023-04-02T02:21:01.714Z,71.78
2023-04-02T02:23:31.194Z,71.19
2023-04-02T02:26:00.334Z,71.15
2023-04-02T02:28:30.615Z,71.12
2023-04-02T02:31:01.519Z,70.98
2023-04-02T02:33:32.766Z,71.22
2023-04-02T02:36:03.307Z,71.81
2023-04-02T02:38:36.845Z,71.15
2023-04-02T02:41:06.345Z,71.35
2023-04-02T02:43:35.981Z,71.65
2023-04-02T02:46:05.101Z,71.56
2023-04-02T02:48:37.838Z,71.75
2023-04-02T02:51:08.041Z,71.49
2023-04-02T02:53:37.717Z,71.01
2023-04-02T02:56:07.547Z,71.20
2023-04-02T02:58:37.320Z,70.95
2023-04-02T03:01:06.451Z,71.08
2023-04-02T03:03:37.826Z,71.38
2023-04-02T03:06:08.581Z,71.34
2023-04-02T03:08:40.365Z,71.36
2023-04-02T03:11:10.658Z,71.10
2023-04-02T03:13:40.428Z,71.15
2023-04-02T03:16:11.524Z,71.26
2023-04-02T03:18:44.421Z,71.18
2023-04-02T03:21:16.732Z,70.96
2023-04-02T03:23:47.152Z,70.45
2023-04-02T03:26:16.811Z,70.28
2023-04-02T03:28:47.780Z,70.38
2023-04-02T03:31:18.025Z,70.86
2023-04-02T03:33:49.655Z,70.54
2023-04-02T03:36:20.195Z,70.39
2023-04-02T03:38:52.087Z,70.51
2023-04-02T03:41:22.994Z,69.96
2023-04-02T03:43:53.023Z,69.98
2023-04-02T03:46:27.421Z,70.54
2023-04-02T03:48:59.099Z,70.40
2023-04-02T03:51:29.296Z,70.32
2023-04-02T03:53:58.726Z,70.12
2023-04-02T03:56:28.931Z,70.46
2023-04-02T03:59:03.985Z,70.24
2023-04-02T04:01:34.568Z,70.33
2023-04-02T04:04:07.658Z,70.43
2023-04-02T04:06:36.921Z,70.51
2023-04-02T04:09:09.067Z,70.52
2023-04-02T04:11:39.111Z,70.85
2023-04-02T04:14:08.791Z,70.92
2023-04-02T04:16:41.556Z,70.98
2023-04-02T04:19:14.307Z,70.67
2023-04-02T04:21:45.322Z,70.67
2023-04-02T04:24:17.836Z,70.43
2023-04-02T04:26:49.808Z,70.54
2023-04-02T04:29:20.995Z,70.59
2023-04-02T04:31:51.061Z,70.47
2023-04-02T04:34:23.213Z,70.22
2023-04-02T04:36:55.269Z,70.26
2023-04-02T04:39:25.475Z,70.00
2023-04-02T04:41:54.831Z,70.25
2023-04-02T04:44:24.377Z,70.49
2023-04-02T04:46:54.548Z,70.20
2023-04-02T04:49:25.593Z,69.96
2023-04-02T04:51:54.941Z,69.95
2023-04-02T04:54:26.349Z,69.43
2023-04-02T04:56:56.600Z,69.50
2023-04-02T04:59:27.316Z,69.11
2023-04-02T05:01:57.435Z,69.33
2023-04-02T05:04:29.952Z,69.45
2023-04-02T05:07:01.835Z,69.60
2023-04-02T05:09:32.446Z,69.73
2023-04-02T05:12:03.627Z,69.82
2023-04-02T05:14:33.730Z,69.74
2023-04-02T05:17:03.467Z,69.67
2023-04-02T05:19:35.963Z,69.84
2023-04-02T05:22:06.429Z,69.96
2023-04-02T05:24:40.483Z,70.03
2023-04-02T05:27:11.602Z,69.74
2023-04-02T05:29:41.432Z,69.95
2023-04-02T05:32:10.905Z,70.26
2023-04-02T05:34:41.956Z,70.10
2023-04-02T05:37:14.205Z,70.26
2023-04-02T05:39:45.136Z,69.71
2023-04-02T05:42:15.955Z,69.92
2023-04-02T05:44:47.990Z,69.93
2023-04-02T05:47:18.519Z,69.80
2023-04-02T05:49:49.954Z,69.91
2023-04-02T05:52:23.349Z,69.77
2023-04-02T05:54:53.896Z,70.28
2023-04-02T05:57:39.504Z,70.21
2023-04-02T06:00:15.297Z,70.32
2023-04-02T06:02:45.307Z,70.27
2023-04-02T06:05:17.372Z,70.30
2023-04-02T06:07:47.709Z,70.37
2023-04-02T06:10:18.794Z,70.44
2023-04-02T06:12:48.472Z,70.44
2023-04-02T06:15:18.364Z,70.66
2023-04-02T06:17:47.984Z,70.89
2023-04-02T06:20:19.553Z,71.07
2023-04-02T06:22:49.769Z,70.67
2023-04-02T06:25:19.756Z,70.32
2023-04-02T06:27:48.961Z,70.39
2023-04-02T06:30:19.177Z,70.72
2023-04-02T06:32:48.376Z,70.17
2023-04-02T06:35:19.388Z,70.23
2023-04-02T06:37:48.668Z,70.29
2023-04-02T06:40:26.949Z,70.34
2023-04-02T06:42:59.798Z,70.29
2023-04-02T06:45:30.139Z,69.80
2023-04-02T06:47:59.281Z,70.05
2023-04-02T06:50:31.490Z,70.18
2023-04-02T06:53:01.445Z,70.19
2023-04-02T06:55:32.143Z,70.54
2023-04-02T06:58:01.323Z,70.37
2023-04-02T07:00:33.044Z,70.22
2023-04-02T07:03:02.238Z,69.96
2023-04-02T07:05:33.462Z,70.00
2023-04-02T07:08:02.689Z,70.35
2023-04-02T07:10:32.102Z,69.90
2023-04-02T07:13:02.623Z,69.70
2023-04-02T07:15:32.068Z,69.84
2023-04-02T07:18:02.740Z,70.06
2023-04-02T07:20:34.623Z,69.87
2023-04-02T07:23:03.708Z,70.11
2023-04-02T07:25:33.308Z,69.86
2023-04-02T07:28:02.645Z,69.84
2023-04-02T07:30:32.094Z,69.84
2023-04-02T07:33:01.991Z,69.53
2023-04-02T07:35:31.640Z,69.65
2023-04-02T07:38:02.184Z,69.59
2023-04-02T07:40:31.648Z,69.42
2023-04-02T07:43:00.902Z,69.49
2023-04-02T07:45:30.670Z,69.11
2023-04-02T07:47:59.779Z,69.54
2023-04-02T07:50:29.470Z,69.49
2023-04-02T07:52:59.762Z,69.53
2023-04-02T07:55:30.610Z,69.43
2023-04-02T07:58:00.005Z,69.20
2023-04-02T08:00:29.671Z,69.40
2023-04-02T08:02:58.919Z,69.22
2023-04-02T08:05:28.546Z,69.10
2023-04-02T08:07:57.933Z,69.07
2023-04-02T08:10:27.396Z,69.17
2023-04-02T08:12:58.001Z,68.90
2023-04-02T08:15:27.430Z,68.87
2023-04-02T08:17:56.586Z,68.59
2023-04-02T08:20:26.219Z,68.29
2023-04-02T08:22:58.357Z,68.23
2023-04-02T08:25:27.917Z,68.05
2023-04-02T08:27:58.501Z,67.75
2023-04-02T08:30:28.010Z,67.66
2023-04-02T08:32:57.174Z,67.51
2023-04-02T08:35:26.662Z,67.57
2023-04-02T08:37:56.876Z,67.87
2023-04-02T08:40:26.871Z,67.81
2023-04-02T08:43:11.237Z,67.97
2023-04-02T08:45:45.115Z,67.61
2023-04-02T08:48:14.275Z,66.94
2023-04-02T08:50:44.304Z,67.23
2023-04-02T08:53:17.268Z,67.11
2023-04-02T08:55:47.978Z,66.53
2023-04-02T08:58:22.996Z,66.96
2023-04-02T09:00:53.211Z,66.47
2023-04-02T09:03:23.481Z,66.56
2023-04-02T09:05:53.055Z,66.53
2023-04-02T09:08:22.617Z,66.74
2023-04-02T09:10:53.480Z,66.59
2023-04-02T09:13:25.512Z,65.85
2023-04-02T09:15:56.636Z,65.59
2023-04-02T09:18:25.994Z,65.06
2023-04-02T09:20:57.235Z,65.88
2023-04-02T09:23:26.984Z,66.14
2023-04-02T09:26:04.092Z,65.76
2023-04-02T09:28:35.044Z,66.01
2023-04-02T09:31:07.018Z,65.46
2023-04-02T09:33:43.230Z,65.74
2023-04-02T09:36:27.915Z,65.07
2023-04-02T09:38:58.378Z,64.99
2023-04-02T09:41:28.550Z,65.34
2023-04-02T09:44:14.090Z,65.29
2023-04-02T09:46:53.072Z,64.32
2023-04-02T09:49:23.208Z,63.28
2023-04-02T09:52:07.460Z,64.23
2023-04-02T09:54:41.802Z,63.53
2023-04-02T09:57:18.939Z,64.33
2023-04-02T09:59:49.527Z,63.44
2023-04-02T10:02:25.160Z,62.78
2023-04-02T10:04:54.292Z,62.89
2023-04-02T10:07:34.823Z,63.34
2023-04-02T10:10:05.074Z,63.43
2023-04-02T10:12:36.728Z,63.00
2023-04-02T10:15:07.966Z,62.51
2023-04-02T10:17:37.808Z,62.30
2023-04-02T10:20:09.550Z,61.72
2023-04-02T10:22:39.053Z,61.93
2023-04-02T10:25:14.291Z,61.50
2023-04-02T10:27:45.947Z,61.51
2023-04-02T10:30:19.482Z,60.25
2023-04-02T10:32:50.497Z,60.49
2023-04-02T10:35:22.228Z,60.30
2023-04-02T10:37:58.532Z,60.97
2023-04-02T10:40:28.915Z,60.78
2023-04-02T10:43:01.507Z,60.43
2023-04-02T10:45:35.769Z,60.49
2023-04-02T10:48:07.194Z,60.52
2023-04-02T10:50:37.560Z,59.66
2023-04-02T10:53:08.775Z,59.12
2023-04-02T10:55:42.639Z,58.83
2023-04-02T10:58:19.121Z,58.26
2023-04-02T11:00:49.737Z,58.07
2023-04-02T11:03:20.611Z,59.28
2023-04-02T11:05:50.029Z,59.44
2023-04-02T11:08:20.298Z,59.17
2023-04-02T11:10:50.763Z,58.79
2023-04-02T11:13:22.785Z,59.44
2023-04-02T11:15:53.947Z,58.80
2023-04-02T11:18:24.183Z,58.14
2023-04-02T11:21:00.605Z,57.66
2023-04-02T11:23:31.217Z,57.29
2023-04-02T11:26:30.329Z,57.72
2023-04-02T11:29:04.315Z,57.65
2023-04-02T11:31:35.017Z,57.26
2023-04-02T11:34:04.595Z,58.14
2023-04-02T11:36:52.821Z,58.24
2023-04-02T11:39:36.961Z,57.22
2023-04-02T11:42:06.679Z,56.59
2023-04-02T11:44:36.095Z,58.39
2023-04-02T11:47:19.748Z,57.70
2023-04-02T11:50:00.540Z,57.73
2023-04-02T11:52:31.214Z,56.63
2023-04-02T11:55:05.603Z,56.83
2023-04-02T11:57:52.712Z,56.68
2023-04-02T12:00:25.687Z,56.16
2023-04-02T12:03:03.675Z,56.47
2023-04-02T12:05:36.723Z,55.49
2023-04-02T12:08:11.953Z,56.12
2023-04-02T12:10:52.938Z,56.20
2023-04-02T12:13:22.320Z,56.00
2023-04-02T12:15:51.814Z,55.67
2023-04-02T12:18:23.111Z,56.33
2023-04-02T12:20:53.207Z,57.03
2023-04-02T12:23:22.878Z,56.44
2023-04-02T12:25:54.722Z,56.42
2023-04-02T12:28:23.925Z,55.85
2023-04-02T12:30:53.639Z,56.55
2023-04-02T12:33:30.706Z,56.22
2023-04-02T12:36:00.995Z,56.20
2023-04-02T12:38:32.280Z,56.01
2023-04-02T12:41:03.667Z,56.22
2023-04-02T12:43:33.247Z,56.33
2023-04-02T12:46:03.550Z,56.15
2023-04-02T12:48:34.230Z,55.26
2023-04-02T12:51:03.742Z,55.48
2023-04-02T12:53:34.761Z,55.90
2023-04-02T12:56:04.330Z,55.94
2023-04-02T12:58:33.844Z,55.78
2023-04-02T13:01:16.461Z,55.52
2023-04-02T13:03:47.125Z,54.88
2023-04-02T13:06:20.061Z,55.63
2023-04-02T13:08:49.207Z,55.46
2023-04-02T13:11:18.665Z,54.79
2023-04-02T13:13:48.605Z,53.57
2023-04-02T13:16:40.030Z,54.55
2023-04-02T13:19:20.293Z,53.96
2023-04-02T13:21:49.701Z,53.98
2023-04-02T13:24:19.288Z,53.98
2023-04-02T13:26:49.904Z,53.98
2023-04-02T13:29:24.282Z,53.84
2023-04-02T13:31:54.106Z,53.92
2023-04-02T13:34:24.864Z,53.39
2023-04-02T13:36:54.366Z,53.01
2023-04-02T13:39:23.550Z,53.40
2023-04-02T13:41:53.691Z,52.62
2023-04-02T13:44:23.743Z,54.18
2023-04-02T13:46:53.525Z,54.13
2023-04-02T13:49:23.128Z,53.09
2023-04-02T13:51:54.424Z,53.11
2023-04-02T13:54:24.886Z,53.36
2023-04-02T13:56:54.476Z,52.00
2023-04-02T13:59:23.839Z,52.55
2023-04-02T14:01:53.948Z,53.82
2023-04-02T14:04:23.626Z,52.79
2023-04-02T14:07:07.809Z,52.97
2023-04-02T14:09:39.312Z,53.07
2023-04-02T14:12:10.065Z,53.31
2023-04-02T14:14:58.075Z,53.01
2023-04-02T14:17:30.557Z,52.53
2023-04-02T14:20:04.187Z,52.59
2023-04-02T14:22:36.845Z,52.92
2023-04-02T14:25:09.230Z,53.40
2023-04-02T14:27:41.003Z,53.23
2023-04-02T14:30:11.840Z,52.35
2023-04-02T14:32:42.826Z,52.14
2023-04-02T14:35:14.423Z,52.77
2023-04-02T14:37:47.514Z,51.77
2023-04-02T14:40:21.376Z,52.22
2023-04-02T14:42:52.834Z,51.75
2023-04-02T14:45:24.840Z,51.98
2023-04-02T14:47:55.833Z,53.39
2023-04-02T14:50:28.045Z,52.40
2023-04-02T14:52:58.390Z,52.25
2023-04-02T14:55:32.928Z,52.19
2023-04-02T14:58:02.487Z,52.07
2023-04-02T15:00:33.609Z,52.15
2023-04-02T15:03:05.077Z,51.84
2023-04-02T15:05:37.318Z,52.20
2023-04-02T15:08:07.559Z,52.31
2023-04-02T15:10:38.985Z,51.26
2023-04-02T15:13:09.761Z,52.13
2023-04-02T15:15:41.465Z,51.92
2023-04-02T15:18:11.358Z,51.59
2023-04-02T15:20:41.668Z,52.57
2023-04-02T15:23:12.050Z,52.14
2023-04-02T15:25:43.743Z,52.02
2023-04-02T15:28:16.978Z,51.75
2023-04-02T15:30:46.251Z,52.03
2023-04-02T15:33:33.390Z,52.79
2023-04-02T15:36:04.669Z,53.35
2023-04-02T15:38:35.095Z,53.41
2023-04-02T15:41:05.969Z,53.89
2023-04-02T15:43:38.421Z,53.66
2023-04-02T15:46:10.873Z,54.07
2023-04-02T15:48:51.000Z,54.05
2023-04-02T15:51:26.112Z,54.50
2023-04-02T15:53:57.583Z,54.29
2023-04-02T15:56:30.908Z,54.03
2023-04-02T15:59:25.666Z,54.47
2023-04-02T16:01:55.904Z,54.64
2023-04-02T16:04:40.117Z,54.87
2023-04-02T16:07:20.905Z,55.28
2023-04-02T16:09:50.724Z,55.11
2023-04-02T16:12:21.785Z,55.07
2023-04-02T16:14:51.401Z,55.02
2023-04-02T16:17:25.060Z,55.15
2023-04-02T16:19:56.017Z,55.16
2023-04-02T16:22:26.045Z,55.65
2023-04-02T16:24:57.600Z,55.88
2023-04-02T16:27:28.830Z,56.06
2023-04-02T16:30:19.300Z,56.54
2023-04-02T16:33:01.195Z,56.25
2023-04-02T16:38:07.115Z,56.93
2023-04-02T16:40:38.789Z,56.88
2023-04-02T16:43:12.534Z,56.42
2023-04-02T16:45:42.991Z,56.89
2023-04-02T16:48:13.490Z,56.96
2023-04-02T16:50:46.237Z,57.63
2023-04-02T16:53:20.009Z,57.09
2023-04-02T16:55:51.467Z,57.15
2023-04-02T16:58:27.495Z,56.97
2023-04-02T17:00:57.608Z,57.09
2023-04-02T17:03:35.459Z,57.32
2023-04-02T17:06:06.602Z,58.02
2023-04-02T17:08:37.925Z,57.76
2023-04-02T17:11:07.765Z,58.08
2023-04-02T17:13:40.557Z,57.78
2023-04-02T17:16:14.013Z,57.66
2023-04-02T17:18:43.398Z,57.51
2023-04-02T17:21:14.661Z,57.75
2023-04-02T17:23:55.220Z,57.75
2023-04-02T17:26:26.818Z,57.76
2023-04-02T17:28:57.413Z,57.54
2023-04-02T17:31:27.618Z,57.42
2023-04-02T17:33:56.883Z,57.40
2023-04-02T17:36:30.094Z,57.13
2023-04-02T17:39:01.387Z,57.02
2023-04-02T17:41:33.200Z,57.03
2023-04-02T17:44:05.214Z,57.29
2023-04-02T17:46:36.687Z,57.27
2023-04-02T17:49:07.731Z,57.75
2023-04-02T17:51:38.162Z,57.01
2023-04-02T17:54:12.039Z,57.02
2023-04-02T17:56:45.933Z,57.30
2023-04-02T17:59:28.784Z,57.25
2023-04-02T18:02:01.059Z,57.83
2023-04-02T18:04:32.823Z,57.93
2023-04-02T18:07:07.680Z,57.82
2023-04-02T18:09:38.914Z,57.82
2023-04-02T18:12:13.057Z,57.76
2023-04-02T18:14:53.114Z,57.94
2023-04-02T18:17:24.799Z,58.29
2023-04-02T18:19:56.032Z,58.32
2023-04-02T18:22:28.233Z,58.35
2023-04-02T18:25:05.340Z,58.35
2023-04-02T18:27:39.299Z,58.29
2023-04-02T18:30:12.827Z,57.95
2023-04-02T18:32:51.899Z,57.75
2023-04-02T18:35:22.543Z,57.36
2023-04-02T18:37:57.215Z,57.02
2023-04-02T18:40:36.347Z,56.79
2023-04-02T18:43:07.831Z,57.03
2023-04-02T18:45:42.681Z,57.27
2023-04-02T18:48:16.531Z,57.15
2023-04-02T18:50:47.090Z,56.78
2023-04-02T18:53:17.213Z,57.18
2023-04-02T18:55:47.342Z,57.12
2023-04-02T18:58:17.907Z,57.21
2023-04-02T19:00:48.845Z,56.99
2023-04-02T19:03:21.343Z,57.92
2023-04-02T19:05:53.080Z,57.71
2023-04-02T19:08:24.229Z,57.66
2023-04-02T19:10:54.992Z,57.45
2023-04-02T19:13:25.099Z,57.52
2023-04-02T19:16:00.034Z,57.69
2023-04-02T19:18:32.349Z,57.89
2023-04-02T19:21:03.893Z,57.78
2023-04-02T19:23:39.044Z,58.05
2023-04-02T19:26:08.834Z,57.81
2023-04-02T19:28:40.816Z,57.99
2023-04-02T19:31:14.799Z,57.90
2023-04-02T19:33:47.322Z,58.41
2023-04-02T19:36:21.155Z,58.06
2023-04-02T19:38:54.034Z,58.45
2023-04-02T19:41:26.475Z,58.34
2023-04-02T19:43:59.276Z,58.21
2023-04-02T19:46:30.189Z,58.40
2023-04-02T19:49:03.314Z,58.05
2023-04-02T19:51:33.685Z,58.09
2023-04-02T19:54:03.327Z,58.10
2023-04-02T19:56:32.566Z,57.80
2023-04-02T19:59:07.749Z,58.11
2023-04-02T20:01:47.515Z,58.45
2023-04-02T20:04:17.047Z,58.64
2023-04-02T20:06:46.187Z,58.66
2023-04-02T20:09:15.758Z,58.74
2023-04-02T20:11:44.894Z,58.87
2023-04-02T20:14:14.313Z,58.78
2023-04-02T20:16:44.662Z,59.72
2023-04-02T20:19:16.869Z,59.70
2023-04-02T20:21:46.030Z,59.79
2023-04-02T20:24:15.596Z,60.10
2023-04-02T20:26:44.722Z,59.94
2023-04-02T20:29:14.233Z,59.80
2023-04-02T20:31:43.359Z,59.69
2023-04-02T20:34:13.102Z,60.30
2023-04-02T20:36:44.574Z,59.77
2023-04-02T20:39:19.287Z,59.65
2023-04-02T20:41:48.515Z,59.60
2023-04-02T20:44:17.966Z,59.82
2023-04-02T20:46:47.038Z,60.06
2023-04-02T20:49:16.458Z,60.18
2023-04-02T20:51:47.913Z,60.34
2023-04-02T20:54:18.042Z,59.97
2023-04-02T20:56:47.513Z,60.21
2023-04-02T20:59:16.903Z,60.64
2023-04-02T21:01:46.617Z,60.42
2023-04-02T21:04:16.084Z,60.34
2023-04-02T21:06:46.711Z,60.26
2023-04-02T21:09:16.839Z,60.30
2023-04-02T21:11:46.464Z,60.82
2023-04-02T21:14:15.929Z,60.78
2023-04-02T21:16:45.047Z,60.73
2023-04-02T21:19:14.494Z,60.47
2023-04-02T21:21:44.418Z,60.22
2023-04-02T21:24:15.295Z,60.34
2023-04-02T21:26:46.509Z,60.06
2023-04-02T21:29:15.984Z,60.12
2023-04-02T21:31:45.119Z,60.44
2023-04-02T21:34:15.377Z,60.52
2023-04-02T21:36:44.907Z,60.72
2023-04-02T21:39:17.783Z,60.27
2023-04-02T21:41:47.495Z,60.39
2023-04-02T21:44:17.838Z,60.05
2023-04-02T21:46:47.025Z,60.37
2023-04-02T21:49:17.521Z,60.20
2023-04-02T21:51:47.710Z,60.54
2023-04-02T21:54:18.719Z,60.13
2023-04-02T21:56:47.992Z,60.30
2023-04-02T21:59:17.959Z,60.44
2023-04-02T22:01:48.368Z,60.59
2023-04-02T22:04:18.534Z,60.95
2023-04-02T22:06:47.812Z,61.51
2023-04-02T22:09:19.197Z,61.21
2023-04-02T22:11:48.825Z,62.65
2023-04-02T22:14:18.356Z,61.93
2023-04-02T22:16:47.584Z,61.76
2023-04-02T22:19:17.903Z,61.25
2023-04-02T22:21:47.286Z,61.55
2023-04-02T22:24:18.840Z,61.74
2023-04-02T22:26:49.543Z,61.60
2023-04-02T22:29:19.065Z,62.26
2023-04-02T22:31:48.211Z,62.24
2023-04-02T22:34:17.731Z,62.08
2023-04-02T22:36:46.881Z,62.58
2023-04-02T22:39:17.190Z,62.71
2023-04-02T22:41:46.529Z,62.72
2023-04-02T22:44:17.453Z,63.04
2023-04-02T22:46:46.666Z,62.89
2023-04-02T22:49:19.640Z,62.47
2023-04-02T22:51:48.824Z,62.52
2023-04-02T22:54:18.296Z,62.71
2023-04-02T22:56:47.448Z,62.63
2023-04-02T22:59:18.515Z,62.61
2023-04-02T23:01:47.644Z,61.93
2023-04-02T23:04:17.127Z,62.59
2023-04-02T23:06:46.192Z,62.55
2023-04-02T23:09:15.686Z,62.36
2023-04-02T23:11:44.785Z,62.66
2023-04-02T23:14:14.188Z,62.11
2023-04-02T23:16:44.744Z,62.77
2023-04-02T23:19:14.191Z,62.58
2023-04-02T23:21:43.373Z,62.75
2023-04-02T23:24:13.220Z,62.88
2023-04-02T23:26:42.341Z,63.09
2023-04-02T23:29:11.988Z,62.72
2023-04-02T23:31:41.124Z,62.41
2023-04-02T23:34:12.228Z,62.12
2023-04-02T23:36:41.976Z,61.95
2023-04-02T23:39:12.231Z,61.56
2023-04-02T23:41:41.876Z,61.46
2023-04-02T23:44:11.452Z,61.52
2023-04-02T23:46:40.601Z,61.25
2023-04-02T23:49:12.992Z,60.95
2023-04-02T23:51:42.150Z,60.89
2023-04-02T23:54:12.255Z,61.03
2023-04-02T23:56:41.465Z,60.76
2023-04-02T23:59:10.876Z,60.58
